createdAt,value
2023-01-03T00:00:25.264Z,1.95
2023-01-03T00:03:28.714Z,1.83
2023-01-03T00:06:32.199Z,2.10
2023-01-03T00:09:34.037Z,1.75
2023-01-03T00:12:36.362Z,1.70
2023-01-03T00:15:38.304Z,1.70
2023-01-03T00:18:41.515Z,1.67
2023-01-03T00:21:44.048Z,2.03
2023-01-03T00:24:47.649Z,1.73
2023-01-03T00:27:49.803Z,2.00
2023-01-03T00:30:51.650Z,1.80
2023-01-03T00:33:55.195Z,1.83
2023-01-03T00:36:57.654Z,2.00
2023-01-03T00:39:59.452Z,2.10
2023-01-03T00:43:01.689Z,1.90
2023-01-03T00:46:04.739Z,1.98
2023-01-03T00:49:08.972Z,2.10
2023-01-03T00:52:10.774Z,2.22
2023-01-03T00:55:12.635Z,2.00
2023-01-03T00:58:14.998Z,2.13
2023-01-03T01:01:18.796Z,1.80
2023-01-03T01:04:24.458Z,1.67
2023-01-03T01:07:26.274Z,2.03
2023-01-03T01:10:28.096Z,1.88
2023-01-03T01:13:30.438Z,1.75
2023-01-03T01:16:32.843Z,2.05
2023-01-03T01:19:39.506Z,1.55
2023-01-03T01:22:41.605Z,2.10
2023-01-03T01:25:43.443Z,1.90
2023-01-03T01:28:45.683Z,2.10
2023-01-03T01:31:48.238Z,2.05
2023-01-03T01:34:51.657Z,1.85
2023-01-03T01:37:53.514Z,2.30
2023-01-03T01:40:56.035Z,2.40
2023-01-03T01:43:58.832Z,2.28
2023-01-03T01:47:02.402Z,2.10
2023-01-03T01:50:15.260Z,2.10
2023-01-03T01:53:20.704Z,2.10
2023-01-03T01:56:26.914Z,2.30
2023-01-03T01:59:28.827Z,1.88
2023-01-03T02:02:30.892Z,2.53
2023-01-03T02:05:36.932Z,2.10
2023-01-03T02:08:41.581Z,2.20
2023-01-03T02:11:53.891Z,2.13
2023-01-03T02:15:08.747Z,1.95
2023-01-03T02:18:32.186Z,1.95
2023-01-03T02:22:02.066Z,2.08
2023-01-03T02:25:35.686Z,1.52
2023-01-03T02:29:07.258Z,2.40
2023-01-03T02:32:14.085Z,2.08
2023-01-03T02:35:23.724Z,2.10
2023-01-03T02:38:34.619Z,2.08
2023-01-03T02:41:44.095Z,1.80
2023-01-03T02:44:52.571Z,1.80
2023-01-03T02:48:03.112Z,1.90
2023-01-03T02:51:12.256Z,1.88
2023-01-03T02:54:19.449Z,2.00
2023-01-03T02:57:26.963Z,2.00
2023-01-03T03:00:32.348Z,2.05
2023-01-03T03:03:37.822Z,2.08
2023-01-03T03:06:47.774Z,1.88
2023-01-03T03:09:49.784Z,1.60
2023-01-03T03:12:56.218Z,1.60
2023-01-03T03:16:05.861Z,1.60
2023-01-03T03:19:20.249Z,1.77
2023-01-03T03:22:30.249Z,1.35
2023-01-03T03:25:36.234Z,1.80
2023-01-03T03:28:40.967Z,1.38
2023-01-03T03:31:46.242Z,1.42
2023-01-03T03:34:50.351Z,1.42
2023-01-03T03:37:55.801Z,1.70
2023-01-03T03:41:14.781Z,1.10
2023-01-03T03:44:26.182Z,1.73
2023-01-03T03:47:37.431Z,1.85
2023-01-03T03:50:46.795Z,1.58
2023-01-03T03:56:59.933Z,1.48
2023-01-03T04:00:11.282Z,1.42
2023-01-03T04:03:15.448Z,1.88
2023-01-03T04:06:22.808Z,1.50
2023-01-03T04:09:24.702Z,1.55
2023-01-03T04:12:26.601Z,1.60
2023-01-03T04:15:28.369Z,1.40
2023-01-03T04:18:30.276Z,1.63
2023-01-03T04:21:33.564Z,1.63
2023-01-03T04:24:35.376Z,1.55
2023-01-03T04:27:37.278Z,1.58
2023-01-03T04:30:39.118Z,1.55
2023-01-03T04:33:40.977Z,1.35
2023-01-03T04:36:44.184Z,1.33
2023-01-03T04:39:45.947Z,1.90
2023-01-03T04:42:47.760Z,1.55
2023-01-03T04:45:50.085Z,2.00
2023-01-03T04:48:51.951Z,1.60
2023-01-03T04:51:55.164Z,1.70
2023-01-03T04:54:56.968Z,1.80
2023-01-03T04:57:58.766Z,1.70
2023-01-03T05:01:01.114Z,2.10
2023-01-03T05:04:03.088Z,2.60
2023-01-03T05:07:06.295Z,2.70
2023-01-03T05:10:08.758Z,2.53
2023-01-03T05:13:10.657Z,2.10
2023-01-03T05:16:14.530Z,2.10
2023-01-03T05:19:16.488Z,2.03
2023-01-03T05:22:19.676Z,2.05
2023-01-03T05:25:21.452Z,2.15
2023-01-03T05:28:24.130Z,3.15
2023-01-03T05:31:25.995Z,1.92
2023-01-03T05:34:27.837Z,2.20
2023-01-03T05:37:31.016Z,1.95
2023-01-03T05:40:37.664Z,2.35
2023-01-03T05:43:42.795Z,2.13
2023-01-03T05:46:44.614Z,1.95
2023-01-03T05:49:46.443Z,2.40
2023-01-03T05:52:49.632Z,2.28
2023-01-03T05:55:51.556Z,2.30
2023-01-03T05:58:53.343Z,2.38
2023-01-03T06:01:55.486Z,2.28
2023-01-03T06:04:57.485Z,2.83
2023-01-03T06:08:01.582Z,2.85
2023-01-03T06:11:05.761Z,3.10
2023-01-03T06:14:07.813Z,3.03
2023-01-03T06:17:09.662Z,3.78
2023-01-03T06:20:12.017Z,3.40
2023-01-03T06:23:15.241Z,3.05
2023-01-03T06:26:19.502Z,2.70
2023-01-03T06:29:21.601Z,2.95
2023-01-03T06:32:23.371Z,2.70
2023-01-03T06:35:25.181Z,2.78
2023-01-03T06:38:28.962Z,2.70
2023-01-03T06:41:30.759Z,2.55
2023-01-03T06:44:32.539Z,2.97
2023-01-03T06:47:34.580Z,3.33
2023-01-03T06:50:39.091Z,3.15
2023-01-03T06:53:43.124Z,3.35
2023-01-03T06:56:45.075Z,3.38
2023-01-03T06:59:47.052Z,3.00
2023-01-03T07:02:49.033Z,2.90
2023-01-03T07:05:51.500Z,2.80
2023-01-03T07:08:54.717Z,2.88
2023-01-03T07:11:56.509Z,2.50
2023-01-03T07:14:58.371Z,3.13
2023-01-03T07:18:00.245Z,3.42
2023-01-03T07:21:05.769Z,3.63
2023-01-03T07:24:11.646Z,3.90
2023-01-03T07:27:13.455Z,4.10
2023-01-03T07:30:15.354Z,4.15
2023-01-03T07:33:17.804Z,3.67
2023-01-03T07:36:21.104Z,3.72
2023-01-03T07:39:24.357Z,3.58
2023-01-03T07:42:26.105Z,3.83
2023-01-03T07:45:27.923Z,3.50
2023-01-03T07:48:29.720Z,3.35
2023-01-03T07:51:31.532Z,4.07
2023-01-03T07:54:34.823Z,3.78
2023-01-03T07:57:37.141Z,4.40
2023-01-03T08:00:39.305Z,5.28
2023-01-03T08:03:41.613Z,4.10
2023-01-03T08:06:43.457Z,4.00
2023-01-03T08:09:46.637Z,3.90
2023-01-03T08:12:48.453Z,4.30
2023-01-03T08:15:52.230Z,3.95
2023-01-03T08:18:54.522Z,4.50
2023-01-03T08:21:56.298Z,4.63
2023-01-03T08:24:59.571Z,4.50
2023-01-03T08:28:01.960Z,4.18
2023-01-03T08:31:08.481Z,3.55
2023-01-03T08:34:18.658Z,3.78
2023-01-03T08:37:22.884Z,3.63
2023-01-03T08:40:26.186Z,3.88
2023-01-03T08:43:29.303Z,3.20
2023-01-03T08:46:33.339Z,3.90
2023-01-03T08:49:35.494Z,3.63
2023-01-03T08:52:37.432Z,3.85
2023-01-03T08:55:40.671Z,4.15
2023-01-03T08:58:42.442Z,3.83
2023-01-03T09:01:44.397Z,3.58
2023-01-03T09:04:46.333Z,3.13
2023-01-03T09:07:48.216Z,2.90
2023-01-03T09:10:51.445Z,2.97
2023-01-03T09:13:55.232Z,3.25
2023-01-03T09:16:57.216Z,3.08
2023-01-03T09:19:59.054Z,3.33
2023-01-03T09:23:00.853Z,2.85
2023-01-03T09:26:04.963Z,2.95
2023-01-03T09:29:06.730Z,3.20
2023-01-03T09:32:08.561Z,3.00
2023-01-03T09:35:10.528Z,3.40
2023-01-03T09:38:12.367Z,3.55
2023-01-03T09:41:22.013Z,3.00
2023-01-03T09:44:23.893Z,3.25
2023-01-03T09:47:26.403Z,2.72
2023-01-03T09:50:50.228Z,2.88
2023-01-03T09:53:54.086Z,3.50
2023-01-03T09:56:57.544Z,2.92
2023-01-03T09:59:59.374Z,3.05
2023-01-03T10:03:22.541Z,3.90
2023-01-03T10:06:35.364Z,6.80
2023-01-03T10:09:46.206Z,5.32
2023-01-03T10:13:03.119Z,4.30
2023-01-03T10:16:15.305Z,4.20
2023-01-03T10:19:34.871Z,3.75
2023-01-03T10:22:39.109Z,3.88
2023-01-03T10:25:45.173Z,3.58
2023-01-03T10:28:48.566Z,3.35
2023-01-03T10:32:08.313Z,3.15
2023-01-03T10:38:18.989Z,2.92
2023-01-03T10:41:29.903Z,2.95
2023-01-03T10:44:33.605Z,3.20
2023-01-03T10:47:35.460Z,3.15
2023-01-03T10:50:38.034Z,3.72
2023-01-03T10:53:42.005Z,3.58
2023-01-03T10:56:45.500Z,3.70
2023-01-03T10:59:50.179Z,4.30
2023-01-03T11:02:52.753Z,4.05
2023-01-03T11:06:08.723Z,3.95
2023-01-03T11:09:10.867Z,4.10
2023-01-03T11:12:14.772Z,4.07
2023-01-03T11:15:19.988Z,4.38
2023-01-03T11:18:21.975Z,4.07
2023-01-03T11:21:30.247Z,4.80
2023-01-03T11:24:49.157Z,4.93
2023-01-03T11:28:19.679Z,4.25
2023-01-03T11:31:34.510Z,4.57
2023-01-03T11:35:22.337Z,4.80
2023-01-03T11:38:31.713Z,4.28
2023-01-03T11:41:59.297Z,4.07
2023-01-03T11:45:23.432Z,3.72
2023-01-03T11:48:55.659Z,3.75
2023-01-03T11:52:13.074Z,3.65
2023-01-03T11:55:28.100Z,4.50
2023-01-03T11:58:53.558Z,4.40
2023-01-03T12:02:29.194Z,5.25
2023-01-03T12:05:53.033Z,4.47
2023-01-03T12:09:06.979Z,4.65
2023-01-03T12:12:36.990Z,5.50
2023-01-03T12:15:44.740Z,5.32
2023-01-03T12:18:53.176Z,5.03
2023-01-03T12:22:02.732Z,6.00
2023-01-03T12:25:15.248Z,5.32
2023-01-03T12:28:23.921Z,4.72
2023-01-03T12:31:32.608Z,5.05
2023-01-03T12:34:39.795Z,4.60
2023-01-03T12:37:45.950Z,4.55
2023-01-03T12:40:52.728Z,4.60
2023-01-03T12:44:00.209Z,4.53
2023-01-03T12:47:03.699Z,4.93
2023-01-03T12:50:13.810Z,4.13
2023-01-03T12:53:24.081Z,4.35
2023-01-03T12:56:53.912Z,4.70
2023-01-03T13:00:22.722Z,3.92
2023-01-03T13:03:29.526Z,4.43
2023-01-03T13:06:34.897Z,4.72
2023-01-03T13:09:42.839Z,4.65
2023-01-03T13:12:50.672Z,9.60
2023-01-03T13:15:53.988Z,10.00
2023-01-03T13:18:55.848Z,10.23
2023-01-03T13:22:03.797Z,10.57
2023-01-03T13:25:30.966Z,7.57
2023-01-03T13:28:33.844Z,5.90
2023-01-03T13:31:38.809Z,5.15
2023-01-03T13:34:40.770Z,6.30
2023-01-03T13:37:44.704Z,5.95
2023-01-03T13:41:18.612Z,5.68
2023-01-03T13:44:19.548Z,5.55
2023-01-03T13:47:30.848Z,5.38
2023-01-03T13:50:34.943Z,5.70
2023-01-03T13:53:39.036Z,5.80
2023-01-03T13:57:04.115Z,36.13
2023-01-03T14:00:17.692Z,18.83
2023-01-03T14:03:48.853Z,15.30
2023-01-03T14:07:05.132Z,39.80
2023-01-03T14:10:20.380Z,80.00
2023-01-03T14:13:36.659Z,18.02
2023-01-03T14:16:45.655Z,16.17
2023-01-03T14:19:51.319Z,17.15
2023-01-03T14:22:54.705Z,9.10
2023-01-03T14:26:04.760Z,8.70
2023-01-03T14:29:15.781Z,11.75
2023-01-03T14:32:21.806Z,14.20
2023-01-03T14:35:38.368Z,11.23
2023-01-03T14:38:47.360Z,10.27
2023-01-03T14:41:49.270Z,7.20
2023-01-03T14:44:55.556Z,7.05
2023-01-03T14:47:57.472Z,7.70
2023-01-03T14:51:01.223Z,8.88
2023-01-03T14:54:04.222Z,8.13
2023-01-03T14:57:06.143Z,6.82
2023-01-03T15:00:16.532Z,7.03
2023-01-03T15:03:18.892Z,16.90
2023-01-03T15:06:23.755Z,21.27
2023-01-03T15:09:26.019Z,18.88
2023-01-03T15:12:36.851Z,15.32
2023-01-03T15:15:40.225Z,13.32
2023-01-03T15:18:43.877Z,9.45
2023-01-03T15:21:45.812Z,6.80
2023-01-03T15:24:51.107Z,6.22
2023-01-03T15:27:52.943Z,6.90
2023-01-03T15:30:59.184Z,6.10
2023-01-03T15:34:09.610Z,5.85
2023-01-03T15:37:15.049Z,5.95
2023-01-03T15:40:17.337Z,5.20
2023-01-03T15:43:25.154Z,6.00
2023-01-03T15:46:28.466Z,6.43
2023-01-03T15:49:37.172Z,6.60
2023-01-03T15:52:39.033Z,6.32
2023-01-03T15:55:40.931Z,6.60
2023-01-03T15:58:42.968Z,6.82
2023-01-03T16:01:46.312Z,6.53
2023-01-03T16:04:48.789Z,6.80
2023-01-03T16:07:50.742Z,6.75
2023-01-03T16:10:52.991Z,6.40
2023-01-03T16:13:57.761Z,6.20
2023-01-03T16:17:02.285Z,7.38
2023-01-03T16:20:04.713Z,9.48
2023-01-03T16:23:08.341Z,10.77
2023-01-03T16:26:10.414Z,10.52
2023-01-03T16:29:12.955Z,10.82
2023-01-03T16:32:20.716Z,10.48
2023-01-03T16:35:22.791Z,10.70
2023-01-03T16:38:24.599Z,10.60
2023-01-03T16:41:26.454Z,9.80
2023-01-03T16:44:28.270Z,9.52
2023-01-03T16:47:33.913Z,9.90
2023-01-03T16:50:39.216Z,8.48
2023-01-03T16:53:41.148Z,16.23
2023-01-03T16:56:43.088Z,16.38
2023-01-03T16:59:45.488Z,12.23
2023-01-03T17:02:48.934Z,11.93
2023-01-03T17:05:51.482Z,9.10
2023-01-03T17:08:53.575Z,8.57
2023-01-03T17:11:55.491Z,9.25
2023-01-03T17:14:57.421Z,10.98
2023-01-03T17:18:00.737Z,15.77
2023-01-03T17:21:11.490Z,13.48
2023-01-03T17:24:17.045Z,11.85
2023-01-03T17:27:27.810Z,10.20
2023-01-03T17:30:33.541Z,8.23
2023-01-03T17:33:36.958Z,7.75
2023-01-03T17:36:39.054Z,8.48
2023-01-03T17:39:40.956Z,7.75
2023-01-03T17:42:43.046Z,8.20
2023-01-03T17:45:44.886Z,12.18
2023-01-03T17:48:48.161Z,13.88
2023-01-03T17:51:50.852Z,11.07
2023-01-03T17:54:52.747Z,10.65
2023-01-03T17:57:55.573Z,9.77
2023-01-03T18:00:57.552Z,9.07
2023-01-03T18:04:00.945Z,9.27
2023-01-03T18:07:02.840Z,7.82
2023-01-03T18:10:05.472Z,8.40
2023-01-03T18:13:18.833Z,9.68
2023-01-03T18:16:22.736Z,9.02
2023-01-03T18:19:26.135Z,8.25
2023-01-03T18:22:28.647Z,8.95
2023-01-03T18:25:30.558Z,9.52
2023-01-03T18:28:32.633Z,10.13
2023-01-03T18:31:34.835Z,11.70
2023-01-03T18:34:38.270Z,10.88
2023-01-03T18:37:40.311Z,10.40
2023-01-03T18:40:42.117Z,8.75
2023-01-03T18:43:43.979Z,8.80
2023-01-03T18:46:49.481Z,7.55
2023-01-03T18:49:54.410Z,8.00
2023-01-03T18:53:00.831Z,9.45
2023-01-03T18:56:02.779Z,11.23
2023-01-03T18:59:08.626Z,9.32
2023-01-03T19:02:14.439Z,8.45
2023-01-03T19:05:18.366Z,8.98
2023-01-03T19:08:21.355Z,10.10
2023-01-03T19:11:29.309Z,10.00
2023-01-03T19:14:31.097Z,9.30
2023-01-03T19:17:33.169Z,13.18
2023-01-03T19:20:36.439Z,14.45
2023-01-03T19:23:40.261Z,10.15
2023-01-03T19:26:46.019Z,8.88
2023-01-03T19:29:48.926Z,8.85
2023-01-03T19:32:54.595Z,7.60
2023-01-03T19:35:57.832Z,7.68
2023-01-03T19:38:59.755Z,8.85
2023-01-03T19:42:02.858Z,8.52
2023-01-03T19:45:14.999Z,8.80
2023-01-03T19:48:19.020Z,7.82
2023-01-03T19:51:23.043Z,9.27
2023-01-03T19:54:25.428Z,9.70
2023-01-03T19:57:33.175Z,10.57
2023-01-03T20:00:35.753Z,10.82
2023-01-03T20:03:40.549Z,12.57
2023-01-03T20:06:45.250Z,12.15
2023-01-03T20:09:47.648Z,12.88
2023-01-03T20:12:51.917Z,11.90
2023-01-03T20:15:55.694Z,12.50
2023-01-03T20:18:59.647Z,11.90
2023-01-03T20:22:03.850Z,11.90
2023-01-03T20:25:07.413Z,11.07
2023-01-03T20:28:17.606Z,11.13
2023-01-03T20:31:21.019Z,11.85
2023-01-03T20:34:24.020Z,11.90
2023-01-03T20:37:27.852Z,10.15
2023-01-03T20:40:30.031Z,9.25
2023-01-03T20:43:32.702Z,9.30
2023-01-03T20:46:35.539Z,10.05
2023-01-03T20:49:40.533Z,10.70
2023-01-03T20:52:44.407Z,10.73
2023-01-03T20:55:46.957Z,11.25
2023-01-03T20:58:49.028Z,11.63
2023-01-03T21:01:51.127Z,11.60
2023-01-03T21:04:53.190Z,11.15
2023-01-03T21:07:57.312Z,10.82
2023-01-03T21:10:59.843Z,10.90
2023-01-03T21:14:02.178Z,10.13
2023-01-03T21:17:07.899Z,9.07
2023-01-03T21:20:15.421Z,9.02
2023-01-03T21:23:20.962Z,9.65
2023-01-03T21:26:23.304Z,9.30
2023-01-03T21:29:26.829Z,9.40
2023-01-03T21:32:28.824Z,9.68
2023-01-03T21:35:30.951Z,8.55
2023-01-03T21:38:34.581Z,8.25
2023-01-03T21:41:36.842Z,9.18
2023-01-03T21:44:38.719Z,8.55
2023-01-03T21:47:41.010Z,8.75
2023-01-03T21:50:45.688Z,8.80
2023-01-03T21:53:49.114Z,7.57
2023-01-03T21:56:50.969Z,8.15
2023-01-03T21:59:52.827Z,8.73
2023-01-03T22:02:59.704Z,10.00
2023-01-03T22:06:06.952Z,10.50
2023-01-03T22:09:10.227Z,9.00
2023-01-03T22:12:15.241Z,7.82
2023-01-03T22:15:17.782Z,7.13
2023-01-03T22:18:19.663Z,7.50
2023-01-03T22:21:21.537Z,9.38
2023-01-03T22:24:24.788Z,9.23
2023-01-03T22:27:26.677Z,8.90
2023-01-03T22:30:28.544Z,8.20
2023-01-03T22:33:32.782Z,7.00
2023-01-03T22:36:34.633Z,8.73
2023-01-03T22:39:37.915Z,9.73
2023-01-03T22:42:39.788Z,8.93
2023-01-03T22:45:41.696Z,9.23
2023-01-03T22:48:44.675Z,10.77
2023-01-03T22:51:46.574Z,9.38
2023-01-03T22:54:50.299Z,10.05
2023-01-03T22:57:52.179Z,9.45
2023-01-03T23:00:54.120Z,6.95
2023-01-03T23:03:58.336Z,7.65
2023-01-03T23:07:00.247Z,7.65
2023-01-03T23:10:03.753Z,7.63
2023-01-03T23:13:05.679Z,7.00
2023-01-03T23:16:07.981Z,7.78
2023-01-03T23:19:14.167Z,6.18
2023-01-03T23:22:16.091Z,7.65
2023-01-03T23:25:19.376Z,8.43
2023-01-03T23:28:21.173Z,7.90
2023-01-03T23:31:23.294Z,6.53
2023-01-03T23:34:25.171Z,4.97
2023-01-03T23:37:27.435Z,6.10
2023-01-03T23:40:30.651Z,5.25
2023-01-03T23:43:32.476Z,3.80
2023-01-03T23:46:34.376Z,3.53
2023-01-03T23:49:36.250Z,4.53
2023-01-03T23:52:38.108Z,5.38
2023-01-03T23:55:41.323Z,6.20
2023-01-03T23:58:43.631Z,5.45
